Time;durP1;ratioP1;P1;durP2;ratioP2;P2;SDS_P1;SDS_P2;PMS_P1;PMS_P2;Temp;Humidity;BMP_temperature;BMP_pressure;BME280_temperature;BME280_humidity;BME280_pressure;Samples;Min_cycle;Max_cycle;Signal;HPM_P1;HPM_P2
2022/01/29 00:01:50;;;;;;;9.10;3.60;;;4.20;99.90;;;;;;5051340;28;20209;-56
2022/01/29 00:04:16;;;;;;;8.90;3.57;;;4.10;99.90;;;;;;5050283;28;20301;-53
2022/01/29 00:06:43;;;;;;;12.03;4.20;;;4.00;99.90;;;;;;5051242;28;20305;-59
2022/01/29 00:09:13;;;;;;;5.60;3.50;;;4.00;99.90;;;;;;5051146;28;20450;-56
2022/01/29 00:11:39;;;;;;;6.00;3.53;;;3.90;99.90;;;;;;5051036;28;20641;-56
2022/01/29 00:14:08;;;;;;;6.90;3.55;;;3.90;99.90;;;;;;5051191;28;20525;-58
2022/01/29 00:16:34;;;;;;;6.50;4.07;;;3.70;99.90;;;;;;5048013;28;20198;-55
2022/01/29 00:18:59;;;;;;;7.23;3.53;;;3.60;99.90;;;;;;5050943;28;20174;-56
2022/01/29 00:21:25;;;;;;;7.97;3.23;;;3.50;99.90;;;;;;5050814;28;20189;-55
2022/01/29 00:23:50;;;;;;;8.17;4.00;;;3.40;99.90;;;;;;5055773;28;20206;-55
2022/01/29 00:26:20;;;;;;;12.63;3.87;;;3.30;99.90;;;;;;5050106;28;20177;-56
2022/01/29 00:28:46;;;;;;;11.00;4.82;;;3.20;99.90;;;;;;5062579;28;20572;-55
2022/01/29 00:31:11;;;;;;;10.50;4.33;;;3.10;99.90;;;;;;5050867;28;20182;-55
2022/01/29 00:33:38;;;;;;;11.23;4.03;;;3.10;99.90;;;;;;5049339;28;20178;-54
2022/01/29 00:36:04;;;;;;;11.23;3.95;;;3.10;99.90;;;;;;5056826;28;20243;-56
2022/01/29 00:38:30;;;;;;;8.65;3.40;;;3.10;99.90;;;;;;5070035;28;20190;-51
2022/01/29 00:40:55;;;;;;;10.83;4.43;;;3.00;99.90;;;;;;5070145;28;20194;-52
2022/01/29 00:43:21;;;;;;;12.43;4.03;;;2.80;99.90;;;;;;5056474;28;20729;-56
2022/01/29 00:45:47;;;;;;;8.07;3.50;;;2.80;99.90;;;;;;5063445;28;20214;-55
2022/01/29 00:48:12;;;;;;;7.73;3.80;;;2.80;99.90;;;;;;5057479;28;20196;-53
2022/01/29 00:50:38;;;;;;;6.60;3.77;;;2.80;99.90;;;;;;5070195;28;20190;-53
2022/01/29 00:53:04;;;;;;;8.30;3.57;;;2.90;99.90;;;;;;5062104;28;20710;-54
2022/01/29 00:55:29;;;;;;;9.43;3.80;;;2.90;99.90;;;;;;5049832;28;20791;-56
2022/01/29 00:57:55;;;;;;;7.17;3.30;;;2.80;99.90;;;;;;5048479;28;20644;-56
2022/01/29 01:00:20;;;;;;;9.07;4.00;;;2.80;99.90;;;;;;5049975;28;20193;-52
2022/01/29 01:02:46;;;;;;;6.73;4.00;;;2.80;99.90;;;;;;5048943;28;20293;-55
2022/01/29 01:05:12;;;;;;;9.53;3.70;;;2.80;99.90;;;;;;5055832;28;20216;-55
2022/01/29 01:07:38;;;;;;;9.52;3.10;;;2.80;99.90;;;;;;5057327;28;20186;-55
2022/01/29 01:10:06;;;;;;;8.85;4.05;;;2.80;99.90;;;;;;5063012;28;20228;-53
2022/01/29 01:12:31;;;;;;;8.52;3.63;;;2.80;99.90;;;;;;5048363;28;20186;-53
2022/01/29 01:14:57;;;;;;;7.20;3.60;;;2.90;99.90;;;;;;5066479;28;20250;-53
2022/01/29 01:17:23;;;;;;;9.80;4.57;;;2.80;99.90;;;;;;5047638;28;20191;-55
2022/01/29 01:19:48;;;;;;;6.97;3.30;;;2.70;99.90;;;;;;5049185;28;20181;-55
2022/01/29 01:22:16;;;;;;;5.33;3.10;;;2.70;99.90;;;;;;5054858;28;20188;-55
2022/01/29 01:24:42;;;;;;;8.20;3.63;;;2.70;99.90;;;;;;5049178;28;20229;-53
2022/01/29 01:27:07;;;;;;;9.90;4.13;;;2.60;99.90;;;;;;5049342;28;20221;-55
2022/01/29 01:29:33;;;;;;;8.30;3.40;;;2.60;99.90;;;;;;5049030;28;20835;-53
2022/01/29 01:31:59;;;;;;;11.23;4.40;;;2.60;99.90;;;;;;5052435;28;20186;-55
2022/01/29 01:34:28;;;;;;;10.53;6.00;;;2.50;99.90;;;;;;5064734;28;20431;-54
2022/01/29 01:36:58;;;;;;;12.73;6.72;;;2.50;99.90;;;;;;5059002;28;20190;-54
2022/01/29 01:39:29;;;;;;;19.55;6.68;;;2.50;99.90;;;;;;5052095;28;20185;-52
2022/01/29 01:42:02;;;;;;;13.68;5.97;;;2.50;99.90;;;;;;5051449;28;20182;-55
2022/01/29 01:44:37;;;;;;;13.18;5.00;;;2.60;99.90;;;;;;5047333;28;20229;-51
2022/01/29 01:47:03;;;;;;;11.43;4.00;;;2.60;99.90;;;;;;5049469;28;20215;-53
2022/01/29 01:49:28;;;;;;;10.40;3.73;;;2.60;99.90;;;;;;5048441;28;20255;-56
2022/01/29 01:51:54;;;;;;;13.33;3.80;;;2.50;99.90;;;;;;5049327;28;20393;-53
2022/01/29 01:54:20;;;;;;;9.53;3.97;;;2.50;99.90;;;;;;5048678;28;20614;-54
2022/01/29 01:56:46;;;;;;;12.80;4.43;;;2.50;99.90;;;;;;5049334;28;20240;-50
2022/01/29 01:59:11;;;;;;;6.77;3.43;;;2.50;99.90;;;;;;5049667;28;20183;-51
2022/01/29 02:01:37;;;;;;;12.67;4.23;;;2.50;99.90;;;;;;5049202;28;20635;-56
2022/01/29 02:04:03;;;;;;;11.30;4.10;;;2.60;99.90;;;;;;5032784;28;20238;-57
2022/01/29 02:06:29;;;;;;;6.70;3.37;;;2.60;99.90;;;;;;5044853;28;20186;-53
2022/01/29 02:08:59;;;;;;;7.88;3.42;;;2.70;99.90;;;;;;5049296;28;20183;-53
2022/01/29 02:11:25;;;;;;;7.38;2.92;;;2.80;99.90;;;;;;5048498;28;20194;-54
2022/01/29 02:13:51;;;;;;;5.68;3.30;;;2.90;99.90;;;;;;5049522;28;20256;-50
2022/01/29 02:16:18;;;;;;;7.93;3.67;;;3.00;99.90;;;;;;5048139;28;20170;-55
2022/01/29 02:18:44;;;;;;;7.40;2.85;;;3.00;99.90;;;;;;5049201;28;20421;-54
2022/01/29 02:21:11;;;;;;;6.38;3.40;;;3.10;99.90;;;;;;5049012;28;20180;-52
2022/01/29 02:23:37;;;;;;;9.82;3.65;;;3.10;99.90;;;;;;5048844;28;20232;-54
2022/01/29 02:26:02;;;;;;;8.87;3.40;;;3.10;99.90;;;;;;5050640;28;20210;-54
2022/01/29 02:28:28;;;;;;;6.93;3.10;;;3.00;99.90;;;;;;5058090;28;20672;-53
2022/01/29 02:31:01;;;;;;;8.20;3.30;;;3.00;99.90;;;;;;5069114;28;20189;-56
2022/01/29 02:33:27;;;;;;;8.52;2.90;;;3.10;99.90;;;;;;5055309;28;20185;-56
2022/01/29 02:35:55;;;;;;;10.57;3.53;;;3.00;99.90;;;;;;5062132;28;20217;-54
2022/01/29 02:38:23;;;;;;;9.18;3.25;;;3.00;99.90;;;;;;5049751;28;20224;-52
2022/01/29 02:40:51;;;;;;;5.95;2.90;;;2.90;99.90;;;;;;5051506;28;20186;-54
2022/01/29 02:43:48;;;;;;;11.15;4.00;;;2.90;99.90;;;;;;5062783;28;20845;-53
2022/01/29 02:48:42;;;;;;;3.83;2.70;;;2.90;99.90;;;;;;5061789;28;20258;-54
2022/01/29 02:51:07;;;;;;;7.17;3.40;;;2.90;99.90;;;;;;5047618;28;20207;-53
2022/01/29 02:53:33;;;;;;;7.77;3.17;;;2.90;99.90;;;;;;5063109;28;20806;-56
2022/01/29 02:55:59;;;;;;;5.97;3.38;;;2.90;99.90;;;;;;5064228;28;20182;-55
2022/01/29 02:58:25;;;;;;;7.87;3.37;;;2.90;99.90;;;;;;5060824;28;20174;-52
2022/01/29 03:00:50;;;;;;;7.13;4.03;;;3.00;99.90;;;;;;5059965;28;20428;-50
2022/01/29 03:03:16;;;;;;;8.40;3.40;;;3.10;99.90;;;;;;5051360;28;20186;-56
2022/01/29 03:05:42;;;;;;;6.03;3.17;;;3.10;99.90;;;;;;5052230;28;20536;-54
2022/01/29 03:08:07;;;;;;;7.07;3.50;;;3.00;99.90;;;;;;5051386;28;20186;-55
2022/01/29 03:10:33;;;;;;;9.17;3.80;;;3.20;99.90;;;;;;5052538;28;20167;-53
2022/01/29 03:12:58;;;;;;;8.50;3.97;;;3.20;99.90;;;;;;5051736;28;20697;-53
2022/01/29 03:15:24;;;;;;;9.43;3.60;;;3.30;99.90;;;;;;5052316;28;20625;-52
2022/01/29 03:17:49;;;;;;;5.90;3.90;;;3.40;99.90;;;;;;5052296;28;20179;-57
2022/01/29 03:20:15;;;;;;;7.03;4.00;;;3.40;99.90;;;;;;5052327;28;20155;-56
2022/01/29 03:22:41;;;;;;;13.10;4.00;;;3.50;99.90;;;;;;5052231;28;20265;-50
2022/01/29 03:25:07;;;;;;;10.80;4.40;;;3.70;99.90;;;;;;5051829;28;21103;-53
2022/01/29 03:27:33;;;;;;;5.43;3.28;;;3.80;99.90;;;;;;5049631;28;20500;-55
2022/01/29 03:29:58;;;;;;;9.57;3.90;;;3.80;99.90;;;;;;5051883;28;20245;-53
2022/01/29 03:32:24;;;;;;;6.90;3.70;;;3.90;99.90;;;;;;5052006;28;20185;-52
2022/01/29 03:34:50;;;;;;;6.00;3.65;;;3.90;99.90;;;;;;5054378;28;20182;-52
2022/01/29 03:37:16;;;;;;;6.70;3.20;;;3.90;99.90;;;;;;5060779;28;20189;-52
2022/01/29 03:39:43;;;;;;;6.83;3.60;;;3.90;99.90;;;;;;5051646;28;20217;-53
2022/01/29 03:42:11;;;;;;;7.07;3.28;;;3.90;99.90;;;;;;5051509;28;20213;-52
2022/01/29 03:44:36;;;;;;;8.02;3.50;;;3.80;99.90;;;;;;5064880;28;20190;-54
2022/01/29 03:47:02;;;;;;;6.50;3.73;;;3.80;99.90;;;;;;5064764;28;20193;-54
2022/01/29 03:49:28;;;;;;;7.80;3.73;;;3.80;99.90;;;;;;5061758;28;20193;-55
2022/01/29 03:51:53;;;;;;;11.23;3.90;;;3.90;99.90;;;;;;5069330;28;20192;-53
2022/01/29 03:54:19;;;;;;;7.93;4.03;;;3.80;99.90;;;;;;5069970;28;20284;-55
2022/01/29 03:56:44;;;;;;;5.63;3.63;;;3.90;99.90;;;;;;5067592;28;20592;-52
2022/01/29 03:59:10;;;;;;;9.87;4.87;;;3.90;99.90;;;;;;5069542;28;20256;-54
2022/01/29 04:01:36;;;;;;;6.23;3.60;;;3.90;99.90;;;;;;5056534;28;20193;-51
2022/01/29 04:04:01;;;;;;;8.80;3.97;;;3.90;99.90;;;;;;5050914;28;20630;-53
2022/01/29 04:06:27;;;;;;;8.87;4.30;;;3.90;99.90;;;;;;5051438;28;20216;-54
2022/01/29 04:08:52;;;;;;;9.07;4.77;;;4.00;99.90;;;;;;5051385;28;20174;-53
2022/01/29 04:11:18;;;;;;;12.57;4.37;;;4.20;99.90;;;;;;5050753;28;20269;-52
2022/01/29 04:13:47;;;;;;;4.53;3.83;;;4.30;99.90;;;;;;5051068;28;20643;-50
2022/01/29 04:16:14;;;;;;;8.20;4.47;;;4.30;99.90;;;;;;5051185;28;20610;-53
2022/01/29 04:18:40;;;;;;;5.93;4.25;;;4.40;99.90;;;;;;5051298;28;20174;-53
2022/01/29 04:21:06;;;;;;;5.37;4.17;;;4.50;99.90;;;;;;5050902;28;20585;-55
2022/01/29 04:23:32;;;;;;;7.80;4.28;;;4.70;99.90;;;;;;5049947;28;20209;-54
2022/01/29 04:26:00;;;;;;;5.75;4.45;;;4.90;99.90;;;;;;5050776;28;20583;-57
2022/01/29 04:28:30;;;;;;;7.25;4.20;;;5.00;99.90;;;;;;5046319;28;20242;-51
2022/01/29 04:31:00;;;;;;;7.05;4.85;;;5.00;99.90;;;;;;5032170;28;20167;-54
2022/01/29 04:33:28;;;;;;;10.68;4.75;;;5.10;99.90;;;;;;5053490;28;20178;-53
2022/01/29 04:36:03;;;;;;;5.93;4.35;;;5.10;99.90;;;;;;5059162;28;20166;-53
2022/01/29 04:38:30;;;;;;;4.35;3.67;;;5.10;99.90;;;;;;5061489;28;20621;-55
2022/01/29 04:40:58;;;;;;;7.05;4.20;;;5.10;99.90;;;;;;5050437;28;20281;-55
2022/01/29 04:43:24;;;;;;;6.28;3.85;;;5.20;99.90;;;;;;5050405;28;20182;-51
2022/01/29 04:45:49;;;;;;;7.22;4.63;;;5.30;99.90;;;;;;5050753;28;20240;-57
2022/01/29 04:48:15;;;;;;;10.20;5.43;;;5.20;99.90;;;;;;5051530;28;20189;-56
2022/01/29 04:50:42;;;;;;;4.83;4.43;;;5.30;99.90;;;;;;5053039;28;20574;-53
2022/01/29 04:53:07;;;;;;;8.55;4.53;;;5.20;99.90;;;;;;5049335;28;20583;-52
2022/01/29 04:55:34;;;;;;;10.63;5.03;;;5.20;99.90;;;;;;5050260;28;20258;-54
2022/01/29 04:57:59;;;;;;;7.57;4.50;;;5.30;99.90;;;;;;5061369;28;20210;-55
2022/01/29 05:00:25;;;;;;;10.00;5.37;;;5.30;99.90;;;;;;5054537;28;20197;-55
2022/01/29 05:02:55;;;;;;;6.27;4.47;;;5.20;99.90;;;;;;5070196;28;20181;-53
2022/01/29 05:05:22;;;;;;;8.90;4.88;;;5.40;99.90;;;;;;5055555;28;20946;-56
2022/01/29 05:07:48;;;;;;;8.57;5.03;;;5.40;99.90;;;;;;5070005;28;20186;-52
2022/01/29 05:10:14;;;;;;;8.00;4.87;;;5.40;99.90;;;;;;5051524;28;20189;-52
2022/01/29 05:13:02;;;;;;;8.73;4.70;;;5.40;99.90;;;;;;5050178;28;20422;-50
2022/01/29 05:15:47;;;;;;;7.63;4.82;;;5.40;99.90;;;;;;5068958;28;20667;-55
2022/01/29 05:29:11;;;;;;;9.30;5.40;;;5.30;99.90;;;;;;5069926;28;20180;-54
2022/01/29 05:31:38;;;;;;;8.80;5.67;;;5.30;99.90;;;;;;5049778;28;20186;-56
2022/01/29 05:34:03;;;;;;;7.85;5.85;;;5.30;99.90;;;;;;5050636;28;20447;-52
2022/01/29 05:36:29;;;;;;;6.93;6.10;;;5.40;99.90;;;;;;5061370;28;20178;-53
2022/01/29 05:38:54;;;;;;;6.90;5.67;;;5.40;99.90;;;;;;5062260;28;20205;-51
2022/01/29 05:41:20;;;;;;;8.40;6.70;;;5.40;99.90;;;;;;5056124;28;20709;-55
2022/01/29 05:43:47;;;;;;;8.45;6.55;;;5.30;99.90;;;;;;5035273;28;20223;-53
2022/01/29 05:46:13;;;;;;;8.18;6.22;;;5.40;99.90;;;;;;5061019;28;20189;-53
2022/01/29 05:48:39;;;;;;;9.02;6.38;;;5.30;99.90;;;;;;5061807;28;20194;-56
2022/01/29 05:51:05;;;;;;;10.57;6.63;;;5.20;99.90;;;;;;5059295;28;20180;-54
2022/01/29 05:53:31;;;;;;;9.90;7.17;;;5.30;99.90;;;;;;5052816;28;20957;-52
2022/01/29 05:55:56;;;;;;;10.27;6.90;;;5.30;99.90;;;;;;5047984;28;20197;-54
2022/01/29 05:58:22;;;;;;;8.83;6.60;;;5.30;99.90;;;;;;5053778;28;20174;-53
2022/01/29 06:00:47;;;;;;;8.20;7.10;;;5.40;99.90;;;;;;5051022;28;20190;-54
2022/01/29 06:03:13;;;;;;;12.30;7.57;;;5.40;99.90;;;;;;5051601;28;20641;-52
2022/01/29 06:05:38;;;;;;;8.30;6.83;;;5.40;99.90;;;;;;5052361;28;20198;-55
2022/01/29 06:08:05;;;;;;;8.57;6.90;;;5.40;99.90;;;;;;5049642;28;20186;-52
2022/01/29 06:10:31;;;;;;;11.00;8.05;;;5.30;99.90;;;;;;5046970;28;20174;-55
2022/01/29 06:13:10;;;;;;;11.23;7.40;;;5.40;99.90;;;;;;5046018;28;20185;-55
2022/01/29 06:15:39;;;;;;;12.10;6.72;;;5.50;99.90;;;;;;5048667;28;20257;-55
2022/01/29 06:18:06;;;;;;;8.95;6.85;;;5.40;99.90;;;;;;5040603;28;20691;-54
2022/01/29 06:20:32;;;;;;;10.60;7.82;;;5.50;99.90;;;;;;5047950;28;20183;-54
2022/01/29 06:22:58;;;;;;;10.90;7.60;;;5.50;99.90;;;;;;5048105;28;20651;-55
2022/01/29 06:25:24;;;;;;;9.97;7.00;;;5.50;99.90;;;;;;5047624;28;20499;-54
2022/01/29 06:27:50;;;;;;;11.50;8.20;;;5.50;99.90;;;;;;5049174;28;20425;-50
2022/01/29 06:30:16;;;;;;;7.23;6.27;;;5.40;99.90;;;;;;5052265;28;20213;-53
2022/01/29 06:32:42;;;;;;;7.90;6.90;;;5.50;99.90;;;;;;5050386;28;20173;-52
2022/01/29 06:35:09;;;;;;;11.63;8.23;;;5.50;99.90;;;;;;5051141;28;20570;-53
2022/01/29 06:37:35;;;;;;;10.35;7.97;;;5.50;99.90;;;;;;5051678;28;20247;-55
2022/01/29 06:40:01;;;;;;;10.33;7.40;;;5.60;99.90;;;;;;5055903;28;20181;-54
2022/01/29 06:42:27;;;;;;;12.10;8.47;;;5.60;99.90;;;;;;5059829;28;20708;-52
2022/01/29 06:44:52;;;;;;;10.17;8.60;;;5.50;99.90;;;;;;5061909;28;20810;-54
2022/01/29 06:47:18;;;;;;;10.43;7.83;;;5.60;99.90;;;;;;5054646;28;20170;-53
2022/01/29 06:49:43;;;;;;;11.40;8.00;;;5.70;99.90;;;;;;5058394;28;20204;-52
2022/01/29 06:52:09;;;;;;;10.17;8.30;;;5.70;99.90;;;;;;5051255;28;20225;-56
2022/01/29 06:54:34;;;;;;;10.23;7.47;;;5.60;99.90;;;;;;5052271;28;20545;-55
2022/01/29 06:57:00;;;;;;;9.70;7.73;;;5.70;99.90;;;;;;5061865;28;20181;-55
2022/01/29 06:59:25;;;;;;;10.57;7.67;;;5.70;99.90;;;;;;5061308;28;20189;-55
2022/01/29 07:01:51;;;;;;;11.00;7.93;;;5.60;99.90;;;;;;5049084;28;20228;-55
2022/01/29 07:04:17;;;;;;;11.50;8.37;;;5.70;99.90;;;;;;5061476;28;20204;-55
2022/01/29 07:06:42;;;;;;;13.83;9.30;;;5.80;99.90;;;;;;5062508;28;20199;-56
2022/01/29 07:09:08;;;;;;;11.33;7.83;;;5.80;99.90;;;;;;5055651;28;20201;-54
2022/01/29 07:11:34;;;;;;;9.73;7.23;;;5.80;99.90;;;;;;5059698;28;20173;-56
2022/01/29 07:14:03;;;;;;;11.15;8.23;;;5.80;99.90;;;;;;5050423;28;20213;-51
2022/01/29 07:16:30;;;;;;;11.75;8.27;;;5.70;99.90;;;;;;5049172;28;20185;-58
2022/01/29 07:18:56;;;;;;;11.95;7.75;;;5.80;99.90;;;;;;5049355;28;20177;-56
2022/01/29 07:21:22;;;;;;;9.40;7.47;;;5.90;99.90;;;;;;5047201;28;20628;-53
2022/01/29 07:23:47;;;;;;;11.93;8.40;;;5.90;99.90;;;;;;5048687;28;20217;-53
2022/01/29 07:26:13;;;;;;;9.63;7.00;;;5.90;99.90;;;;;;5058720;28;20274;-56
2022/01/29 07:28:39;;;;;;;11.20;8.23;;;5.90;99.90;;;;;;5062343;28;20178;-57
2022/01/29 07:31:05;;;;;;;10.05;7.45;;;5.90;99.90;;;;;;5062611;28;20174;-59
2022/01/29 07:33:31;;;;;;;9.75;6.43;;;6.00;99.90;;;;;;5047294;28;20187;-57
2022/01/29 07:35:57;;;;;;;10.77;6.50;;;6.00;99.90;;;;;;5052082;28;20192;-56
2022/01/29 07:38:22;;;;;;;9.70;7.45;;;6.00;99.90;;;;;;5058217;28;20447;-52
2022/01/29 07:40:48;;;;;;;9.80;7.50;;;6.00;99.90;;;;;;5057458;28;20185;-51
2022/01/29 07:43:14;;;;;;;10.02;6.88;;;6.00;99.90;;;;;;5052129;28;20182;-53
2022/01/29 07:45:40;;;;;;;11.00;7.30;;;6.00;99.90;;;;;;5055475;28;20581;-55
2022/01/29 07:48:05;;;;;;;10.60;6.80;;;5.90;99.90;;;;;;5051862;28;20190;-54
2022/01/29 07:50:31;;;;;;;10.20;7.90;;;6.00;99.90;;;;;;5047228;28;20194;-50
2022/01/29 07:52:59;;;;;;;9.77;6.80;;;5.90;99.90;;;;;;5049061;28;20371;-53
2022/01/29 07:55:25;;;;;;;9.10;7.13;;;5.90;99.90;;;;;;5051044;28;20177;-52
2022/01/29 07:57:51;;;;;;;9.10;6.85;;;5.80;99.90;;;;;;5061272;28;20173;-52
2022/01/29 08:00:16;;;;;;;9.20;5.20;;;5.90;99.90;;;;;;5053822;28;20201;-55
2022/01/29 08:02:42;;;;;;;10.80;7.13;;;5.80;99.90;;;;;;5055253;28;21087;-52
2022/01/29 08:05:08;;;;;;;6.87;5.17;;;5.80;99.90;;;;;;5059177;28;20254;-54
2022/01/29 08:07:33;;;;;;;8.75;6.70;;;5.70;99.90;;;;;;5062009;28;20288;-54
2022/01/29 08:09:59;;;;;;;8.67;6.60;;;5.80;99.90;;;;;;5054697;28;20224;-53
2022/01/29 08:12:25;;;;;;;9.90;7.17;;;5.70;99.90;;;;;;5053221;28;20178;-58
2022/01/29 08:14:50;;;;;;;11.20;6.87;;;5.80;99.90;;;;;;5060402;28;20192;-57
2022/01/29 08:17:16;;;;;;;8.80;5.80;;;5.80;99.90;;;;;;5060006;28;20612;-54
2022/01/29 08:19:41;;;;;;;7.27;5.53;;;5.80;99.90;;;;;;5061412;28;20651;-54
2022/01/29 08:22:07;;;;;;;9.60;6.93;;;5.70;99.90;;;;;;5062087;28;20292;-54
2022/01/29 08:24:33;;;;;;;8.93;6.77;;;5.70;99.90;;;;;;5032765;28;20235;-58
2022/01/29 08:26:58;;;;;;;9.67;7.07;;;5.70;99.90;;;;;;5050196;28;20832;-52
2022/01/29 08:29:24;;;;;;;7.90;6.00;;;5.70;99.90;;;;;;5050354;28;20186;-55
2022/01/29 08:31:49;;;;;;;8.77;6.37;;;5.70;99.90;;;;;;5058712;28;20182;-54
2022/01/29 08:34:15;;;;;;;6.60;5.70;;;5.60;99.90;;;;;;5055578;28;20174;-54
2022/01/29 08:36:41;;;;;;;7.70;5.77;;;5.60;99.90;;;;;;5049665;28;20312;-53
2022/01/29 08:39:06;;;;;;;10.07;5.87;;;5.60;99.90;;;;;;5049068;28;20295;-67
2022/01/29 08:41:32;;;;;;;8.00;6.00;;;5.50;99.90;;;;;;5051147;28;20356;-65
2022/01/29 08:43:57;;;;;;;8.93;6.30;;;5.50;99.90;;;;;;5063373;28;20216;-65
2022/01/29 08:46:23;;;;;;;9.10;5.90;;;5.40;99.90;;;;;;5048968;28;20695;-64
2022/01/29 08:48:50;;;;;;;8.67;5.90;;;5.40;99.90;;;;;;5052733;28;20231;-65
2022/01/29 08:51:15;;;;;;;7.47;5.57;;;5.30;99.90;;;;;;5053839;28;20183;-66
2022/01/29 08:53:41;;;;;;;9.63;6.60;;;5.40;99.90;;;;;;5043471;28;21040;-66
2022/01/29 08:56:07;;;;;;;7.73;6.03;;;5.50;99.90;;;;;;5045315;28;20224;-68
2022/01/29 08:58:33;;;;;;;6.77;5.60;;;5.50;99.90;;;;;;5052255;28;20429;-63
2022/01/29 09:00:59;;;;;;;6.50;5.33;;;5.60;99.90;;;;;;5043953;28;20494;-67
2022/01/29 09:03:25;;;;;;;7.18;5.63;;;5.60;99.90;;;;;;5053584;28;20818;-64
2022/01/29 09:05:51;;;;;;;8.32;6.18;;;5.50;99.90;;;;;;5041896;28;20209;-63
2022/01/29 09:08:17;;;;;;;7.63;5.53;;;5.40;99.90;;;;;;5052852;28;20215;-60
2022/01/29 09:10:43;;;;;;;6.90;5.65;;;5.30;99.90;;;;;;5047061;28;20421;-64
2022/01/29 09:13:11;;;;;;;7.70;5.50;;;5.40;99.90;;;;;;5054688;28;20196;-64
2022/01/29 09:15:37;;;;;;;8.52;6.28;;;5.30;99.90;;;;;;5048252;28;20242;-64
2022/01/29 09:18:03;;;;;;;8.20;6.37;;;5.40;99.90;;;;;;5046518;28;20193;-65
2022/01/29 09:20:29;;;;;;;9.30;5.60;;;5.40;99.90;;;;;;5045713;28;20182;-65
2022/01/29 09:22:55;;;;;;;7.20;5.82;;;5.50;99.90;;;;;;5042147;28;20444;-65
2022/01/29 09:25:20;;;;;;;8.23;5.77;;;5.50;99.90;;;;;;5046370;28;20627;-64
2022/01/29 09:27:46;;;;;;;7.63;5.50;;;5.40;99.90;;;;;;5055868;28;20185;-65
2022/01/29 09:30:12;;;;;;;7.57;6.53;;;5.50;99.90;;;;;;5050270;28;20178;-64
2022/01/29 09:32:37;;;;;;;6.50;5.50;;;5.40;99.90;;;;;;5046393;28;20178;-64
2022/01/29 09:35:04;;;;;;;7.63;6.30;;;5.40;99.90;;;;;;5056379;28;20186;-63
2022/01/29 09:37:30;;;;;;;8.20;5.95;;;5.40;99.90;;;;;;5053344;28;20209;-62
2022/01/29 09:39:55;;;;;;;7.20;5.77;;;5.40;99.90;;;;;;5052019;28;20209;-63
2022/01/29 09:42:21;;;;;;;8.93;5.23;;;5.50;99.90;;;;;;5058089;28;20186;-62
2022/01/29 09:44:48;;;;;;;8.20;5.60;;;5.50;99.90;;;;;;5047483;28;20750;-63
2022/01/29 09:47:17;;;;;;;5.97;5.30;;;5.50;99.90;;;;;;5053172;28;20462;-63
2022/01/29 09:49:43;;;;;;;8.35;5.57;;;5.50;99.90;;;;;;5050955;28;20206;-63
2022/01/29 09:52:09;;;;;;;6.68;5.55;;;5.50;99.90;;;;;;5042295;28;20230;-63
2022/01/29 09:54:34;;;;;;;6.63;4.80;;;5.50;99.90;;;;;;5039991;28;20624;-63
2022/01/29 09:57:00;;;;;;;8.00;5.23;;;5.60;99.90;;;;;;5050518;28;20178;-64
2022/01/29 09:59:26;;;;;;;7.80;5.03;;;5.50;99.90;;;;;;5049696;28;20217;-64
2022/01/29 10:01:51;;;;;;;8.90;5.40;;;5.60;99.90;;;;;;5050513;28;20846;-64
2022/01/29 10:04:17;;;;;;;8.43;5.57;;;5.60;99.90;;;;;;5036490;28;20210;-64
2022/01/29 10:06:45;;;;;;;6.60;4.10;;;5.70;99.90;;;;;;5042890;28;20245;-64
2022/01/29 10:09:12;;;;;;;5.97;4.90;;;5.60;99.90;;;;;;5039513;28;21068;-63
2022/01/29 10:11:38;;;;;;;4.93;4.15;;;5.60;99.90;;;;;;5036891;28;20185;-63
2022/01/29 10:14:05;;;;;;;5.97;4.95;;;5.50;99.90;;;;;;5052879;28;20190;-65
2022/01/29 10:16:34;;;;;;;6.90;4.47;;;5.50;99.90;;;;;;5042818;28;20209;-64
2022/01/29 10:19:08;;;;;;;5.47;4.50;;;5.50;99.90;;;;;;5049775;28;20186;-64
2022/01/29 10:21:47;;;;;;;6.15;4.13;;;5.60;99.90;;;;;;5052445;28;21074;-64
2022/01/29 10:24:18;;;;;;;6.75;4.75;;;5.60;99.90;;;;;;5046222;28;20197;-65
2022/01/29 10:26:49;;;;;;;5.15;4.07;;;5.60;99.90;;;;;;5039830;28;20186;-64
2022/01/29 10:29:19;;;;;;;4.85;3.95;;;5.60;99.90;;;;;;5049978;28;20209;-64
2022/01/29 10:31:50;;;;;;;5.72;3.97;;;5.70;99.90;;;;;;5047234;28;20189;-62
2022/01/29 10:34:35;;;;;;;6.55;4.82;;;5.70;99.90;;;;;;5044496;28;21031;-64
2022/01/29 10:37:20;;;;;;;7.45;4.88;;;5.70;99.90;;;;;;5047834;28;20174;-66
2022/01/29 10:39:54;;;;;;;6.15;4.53;;;5.70;99.90;;;;;;5043830;28;20190;-64
2022/01/29 10:42:31;;;;;;;6.40;4.60;;;5.70;99.90;;;;;;5036750;28;20729;-64
2022/01/29 10:45:02;;;;;;;5.72;4.85;;;5.70;99.90;;;;;;5040018;28;20205;-64
2022/01/29 10:47:28;;;;;;;7.15;3.92;;;5.80;99.90;;;;;;5040603;28;20183;-65
2022/01/29 10:49:59;;;;;;;6.40;4.40;;;5.90;99.90;;;;;;5042285;28;20182;-63
2022/01/29 10:52:35;;;;;;;7.00;4.78;;;5.90;99.90;;;;;;5045692;28;20275;-64
2022/01/29 10:55:06;;;;;;;7.90;5.00;;;5.90;99.90;;;;;;5043650;28;20206;-62
2022/01/29 10:57:33;;;;;;;8.23;4.95;;;5.90;99.90;;;;;;5041351;28;20698;-62
2022/01/29 10:59:58;;;;;;;6.40;5.38;;;5.90;99.90;;;;;;5039601;28;20192;-60
2022/01/29 11:02:28;;;;;;;7.60;5.00;;;5.90;99.90;;;;;;5035677;28;20183;-64
2022/01/29 11:04:53;;;;;;;5.88;4.03;;;6.00;99.90;;;;;;5041664;28;20471;-64
2022/01/29 11:07:24;;;;;;;6.93;5.67;;;5.90;99.90;;;;;;5044096;28;20191;-64
2022/01/29 11:09:51;;;;;;;6.38;5.13;;;5.90;99.90;;;;;;5048451;28;20178;-64
2022/01/29 11:12:21;;;;;;;8.10;6.00;;;6.00;99.90;;;;;;5046542;28;20579;-64
2022/01/29 11:14:49;;;;;;;7.82;5.38;;;6.00;99.90;;;;;;5050737;28;20251;-63
2022/01/29 11:17:15;;;;;;;6.60;5.00;;;6.10;99.90;;;;;;5053136;28;20190;-64
2022/01/29 11:19:42;;;;;;;6.20;5.22;;;6.20;99.90;;;;;;5047588;28;20182;-65
2022/01/29 11:22:09;;;;;;;5.97;4.90;;;6.10;99.90;;;;;;5048872;28;20201;-64
2022/01/29 11:24:37;;;;;;;7.55;4.47;;;6.20;99.90;;;;;;5045862;28;20198;-63
2022/01/29 11:27:19;;;;;;;6.38;4.85;;;6.30;99.90;;;;;;5047839;28;20336;-64
2022/01/29 11:30:04;;;;;;;7.00;4.78;;;6.30;99.90;;;;;;5057592;28;20248;-61
2022/01/29 11:32:33;;;;;;;5.97;4.55;;;6.40;99.90;;;;;;5058528;28;20182;-68
2022/01/29 11:35:12;;;;;;;5.68;4.60;;;6.40;99.90;;;;;;5046745;28;20195;-68
2022/01/29 11:38:04;;;;;;;7.53;4.90;;;6.50;99.90;;;;;;5048178;28;21049;-67
2022/01/29 11:40:44;;;;;;;6.70;5.20;;;6.60;99.90;;;;;;5046863;28;20995;-68
2022/01/29 11:43:24;;;;;;;5.13;4.63;;;6.70;99.90;;;;;;5043449;28;20185;-69
2022/01/29 11:45:53;;;;;;;7.10;4.78;;;6.70;99.90;;;;;;5049569;28;20198;-67
2022/01/29 11:48:29;;;;;;;5.30;4.60;;;6.80;99.90;;;;;;5047366;28;20174;-67
2022/01/29 11:51:09;;;;;;;6.75;4.88;;;6.90;99.90;;;;;;5040789;28;20235;-65
2022/01/29 11:53:44;;;;;;;5.57;4.10;;;6.80;99.90;;;;;;5035583;28;20249;-67
2022/01/29 11:56:32;;;;;;;5.05;4.18;;;6.90;99.90;;;;;;5042356;28;20273;-68
2022/01/29 11:59:19;;;;;;;6.27;4.40;;;7.00;99.90;;;;;;5054031;28;20184;-67
2022/01/29 12:02:14;;;;;;;4.07;3.65;;;7.10;99.90;;;;;;5041075;28;20426;-69
2022/01/29 12:04:54;;;;;;;4.78;3.75;;;7.10;99.90;;;;;;5038831;28;20210;-67
2022/01/29 12:10:04;;;;;;;4.80;4.27;;;7.20;99.90;;;;;;5042549;28;20174;-68
2022/01/29 12:12:35;;;;;;;5.20;4.70;;;7.20;99.90;;;;;;5043836;28;20413;-61
2022/01/29 12:15:10;;;;;;;4.55;3.55;;;7.30;99.90;;;;;;5040377;28;20515;-68
2022/01/29 12:17:42;;;;;;;4.10;3.70;;;7.30;99.90;;;;;;5048850;28;20181;-58
2022/01/29 12:20:10;;;;;;;4.17;3.63;;;7.30;99.90;;;;;;5046079;28;21005;-71
2022/01/29 12:22:37;;;;;;;5.60;4.00;;;7.40;99.90;;;;;;5050743;28;20424;-71
2022/01/29 12:25:06;;;;;;;4.40;3.50;;;7.40;99.90;;;;;;5052247;28;20955;-70
2022/01/29 12:27:46;;;;;;;3.80;3.40;;;7.40;99.90;;;;;;5047549;28;20441;-70
2022/01/29 12:30:15;;;;;;;5.57;3.60;;;7.50;99.90;;;;;;5048093;28;20422;-69
2022/01/29 12:33:06;;;;;;;3.90;3.43;;;7.50;99.90;;;;;;5055505;28;20413;-70
2022/01/29 12:35:42;;;;;;;3.13;2.70;;;7.50;99.90;;;;;;5049920;28;20427;-69
2022/01/29 12:38:14;;;;;;;3.53;2.70;;;7.60;99.90;;;;;;5062480;28;20552;-70
2022/01/29 12:41:02;;;;;;;4.13;3.17;;;7.60;99.90;;;;;;5059537;28;20424;-69
2022/01/29 12:43:58;;;;;;;4.60;3.60;;;7.60;99.90;;;;;;5041716;28;20531;-70
2022/01/29 12:46:26;;;;;;;4.10;2.83;;;7.70;99.90;;;;;;5061557;28;20437;-70
2022/01/29 12:48:57;;;;;;;3.70;3.07;;;7.70;99.90;;;;;;5059576;28;20439;-68
2022/01/29 12:51:23;;;;;;;4.90;3.23;;;7.60;99.90;;;;;;5065727;28;20417;-70
2022/01/29 12:53:56;;;;;;;3.00;2.70;;;7.70;99.90;;;;;;5054924;28;20474;-69
2022/01/29 12:56:28;;;;;;;3.00;2.70;;;7.70;99.90;;;;;;5060783;28;20186;-71
2022/01/29 12:58:54;;;;;;;2.40;2.20;;;7.80;99.90;;;;;;5049169;28;20427;-69
2022/01/29 13:01:24;;;;;;;3.60;2.57;;;7.80;99.90;;;;;;5051850;28;20421;-70
2022/01/29 13:03:50;;;;;;;3.63;2.73;;;7.80;99.90;;;;;;5058524;28;20186;-71
2022/01/29 13:06:17;;;;;;;3.87;3.10;;;7.70;99.90;;;;;;5051415;28;20934;-72
2022/01/29 13:08:43;;;;;;;3.30;3.00;;;7.80;99.90;;;;;;5049187;28;20415;-71
2022/01/29 13:11:26;;;;;;;2.20;1.97;;;7.80;99.90;;;;;;5038491;28;20442;-69
2022/01/29 13:13:52;;;;;;;2.93;2.63;;;7.90;99.90;;;;;;5046305;28;20474;-71
2022/01/29 13:16:19;;;;;;;3.20;2.60;;;7.90;99.90;;;;;;5048721;28;20788;-72